Time;durP1;ratioP1;P1;durP2;ratioP2;P2;SDS_P1;SDS_P2;PMS_P1;PMS_P2;Temp;Humidity;BMP_temperature;BMP_pressure;BME280_temperature;BME280_humidity;BME280_pressure;Samples;Min_cycle;Max_cycle;Signal;HPM_P1;HPM_P2
2021/03/28 00:01:34;;;;;;;5.53;3.07;;;7.50;99.90;;;;;;4969676;28;20442;-69
2021/03/28 00:04:02;;;;;;;4.20;2.50;;;7.40;99.90;;;;;;4990516;28;20466;-69
2021/03/28 00:06:34;;;;;;;6.07;3.40;;;7.40;99.90;;;;;;4990234;28;21028;-69
2021/03/28 00:09:38;;;;;;;8.53;3.43;;;7.40;99.90;;;;;;4990330;28;20454;-69
2021/03/28 00:12:34;;;;;;;6.43;3.87;;;7.30;99.90;;;;;;4990055;28;20449;-69
2021/03/28 00:15:08;;;;;;;4.77;2.40;;;7.30;99.90;;;;;;4958210;28;20435;-69
2021/03/28 00:17:43;;;;;;;4.67;2.87;;;7.30;99.90;;;;;;4988806;28;20434;-69
2021/03/28 00:20:14;;;;;;;7.70;2.77;;;7.20;99.90;;;;;;4989188;28;20847;-69
2021/03/28 00:22:49;;;;;;;5.77;2.53;;;7.20;99.90;;;;;;4986652;28;20439;-69
2021/03/28 00:25:30;;;;;;;4.47;2.33;;;7.10;99.90;;;;;;4990150;28;20453;-69
2021/03/28 00:27:56;;;;;;;7.07;2.97;;;7.10;99.90;;;;;;4990604;28;20426;-69
2021/03/28 00:30:28;;;;;;;7.73;3.07;;;7.10;99.90;;;;;;4990205;28;20980;-69
2021/03/28 00:32:59;;;;;;;4.90;2.80;;;7.00;99.90;;;;;;4990642;28;20255;-69
2021/03/28 00:35:34;;;;;;;6.97;2.10;;;7.00;99.90;;;;;;4990825;28;20774;-69
2021/03/28 00:38:13;;;;;;;6.07;2.87;;;6.90;99.90;;;;;;4990309;28;21035;-69
2021/03/28 00:40:40;;;;;;;8.97;3.40;;;6.90;99.90;;;;;;4975091;28;20489;-70
2021/03/28 00:43:12;;;;;;;3.40;2.53;;;6.90;99.90;;;;;;4990574;28;20434;-69
2021/03/28 00:45:40;;;;;;;3.33;2.70;;;6.80;99.90;;;;;;4990352;28;20470;-70
2021/03/28 00:48:11;;;;;;;7.70;2.67;;;6.80;99.90;;;;;;4990341;28;20477;-69
2021/03/28 00:50:42;;;;;;;8.03;2.50;;;6.80;99.90;;;;;;4990410;28;20822;-69
2021/03/28 00:53:11;;;;;;;4.57;2.73;;;6.70;99.90;;;;;;4993721;28;20842;-69
2021/03/28 00:55:54;;;;;;;6.10;2.77;;;6.70;99.90;;;;;;4994092;28;20949;-69
2021/03/28 00:58:26;;;;;;;3.73;2.43;;;6.60;99.90;;;;;;4993306;28;20443;-69
2021/03/28 01:01:17;;;;;;;9.20;2.40;;;6.60;99.90;;;;;;4982674;28;20446;-70
2021/03/28 01:04:24;;;;;;;3.60;2.20;;;6.60;99.90;;;;;;4993844;28;20435;-69
2021/03/28 01:06:57;;;;;;;3.60;2.30;;;6.60;99.90;;;;;;4982730;28;20485;-69
2021/03/28 01:10:00;;;;;;;4.53;2.40;;;6.60;99.90;;;;;;4993329;28;20455;-69
2021/03/28 01:12:45;;;;;;;6.53;2.70;;;6.60;99.90;;;;;;4993097;28;20457;-70
2021/03/28 01:15:32;;;;;;;5.20;2.83;;;6.60;99.90;;;;;;4993633;28;20489;-69
2021/03/28 01:18:05;;;;;;;4.10;2.53;;;6.50;99.90;;;;;;4993491;28;20442;-69
2021/03/28 01:20:52;;;;;;;5.80;2.40;;;6.50;99.90;;;;;;4986594;28;20852;-70
2021/03/28 01:23:32;;;;;;;6.53;3.10;;;6.40;99.90;;;;;;4984144;28;20938;-70
2021/03/28 01:26:33;;;;;;;6.80;2.90;;;6.40;99.90;;;;;;4989253;28;20458;-69
2021/03/28 01:29:29;;;;;;;5.83;2.67;;;6.40;99.90;;;;;;4978816;28;20817;-72
2021/03/28 01:32:02;;;;;;;6.30;2.77;;;6.30;99.90;;;;;;4993048;28;20577;-71
2021/03/28 01:34:47;;;;;;;4.77;3.17;;;6.20;99.90;;;;;;4993034;28;20426;-71
2021/03/28 01:37:22;;;;;;;2.60;2.17;;;6.20;99.90;;;;;;4992998;28;20438;-72
2021/03/28 01:39:51;;;;;;;10.67;2.33;;;6.20;99.90;;;;;;4992777;28;20477;-72
2021/03/28 01:42:46;;;;;;;4.00;2.77;;;6.20;99.90;;;;;;4992942;28;20445;-71
2021/03/28 01:45:23;;;;;;;2.77;1.93;;;6.20;99.90;;;;;;4992514;28;20976;-71
2021/03/28 01:48:02;;;;;;;5.37;2.60;;;6.20;99.90;;;;;;4992837;28;20433;-71
2021/03/28 01:50:51;;;;;;;8.07;2.63;;;6.20;99.90;;;;;;4992624;28;20821;-71
2021/03/28 01:53:58;;;;;;;4.70;1.97;;;6.20;99.90;;;;;;4987761;28;20434;-71
2021/03/28 01:56:53;;;;;;;3.40;2.33;;;6.20;99.90;;;;;;4984013;28;20478;-72
2021/03/28 01:59:57;;;;;;;3.77;2.50;;;6.20;99.90;;;;;;4991791;28;20593;-72
2021/03/28 02:02:39;;;;;;;5.40;2.53;;;6.10;99.90;;;;;;4992408;28;20462;-73
2021/03/28 02:05:33;;;;;;;5.57;2.27;;;6.10;99.90;;;;;;4991953;28;20466;-71
2021/03/28 02:08:44;;;;;;;2.80;2.43;;;6.10;99.90;;;;;;4992666;28;20423;-71
2021/03/28 02:11:35;;;;;;;5.23;3.20;;;6.00;99.90;;;;;;4992013;28;20452;-73
2021/03/28 02:14:22;;;;;;;2.70;1.80;;;6.00;99.90;;;;;;4992227;28;20430;-72
2021/03/28 02:16:56;;;;;;;5.13;2.47;;;6.00;99.90;;;;;;4991491;28;20977;-71
2021/03/28 02:19:31;;;;;;;4.03;2.10;;;6.00;99.90;;;;;;4991831;28;20466;-71
2021/03/28 02:22:16;;;;;;;3.70;2.20;;;6.00;99.90;;;;;;4992256;28;20434;-70
2021/03/28 02:25:16;;;;;;;5.43;2.33;;;5.90;99.90;;;;;;4986204;28;20458;-71
2021/03/28 02:28:04;;;;;;;6.13;2.60;;;5.90;99.90;;;;;;4992270;28;20427;-71
2021/03/28 02:30:32;;;;;;;6.97;2.63;;;5.90;99.90;;;;;;4980977;28;20552;-71
2021/03/28 02:33:38;;;;;;;2.90;2.03;;;5.80;99.90;;;;;;4991993;28;20426;-71
2021/03/28 02:36:16;;;;;;;6.67;2.40;;;5.70;99.90;;;;;;4990234;28;20508;-70
2021/03/28 02:39:11;;;;;;;2.93;2.10;;;5.60;99.90;;;;;;4991519;28;20434;-70
2021/03/28 02:41:55;;;;;;;7.33;2.87;;;5.60;99.90;;;;;;4992359;28;20445;-68
2021/03/28 02:44:52;;;;;;;5.30;1.90;;;5.70;99.90;;;;;;4991977;28;20460;-72
2021/03/28 02:47:40;;;;;;;9.13;3.10;;;5.80;99.90;;;;;;4975642;28;20807;-71
2021/03/28 02:50:43;;;;;;;9.43;2.43;;;5.90;99.90;;;;;;4991789;28;20451;-71
2021/03/28 02:53:31;;;;;;;4.43;2.27;;;5.80;99.90;;;;;;4975411;28;20422;-71
2021/03/28 02:56:32;;;;;;;4.03;2.20;;;5.80;99.90;;;;;;4991987;28;20430;-71
2021/03/28 02:59:11;;;;;;;2.70;1.70;;;5.80;99.90;;;;;;4991454;28;20450;-72
2021/03/28 03:01:42;;;;;;;7.47;2.90;;;5.70;99.90;;;;;;4991732;28;20522;-71
2021/03/28 03:04:23;;;;;;;9.23;3.60;;;5.70;99.90;;;;;;4991632;28;20431;-71
2021/03/28 03:07:06;;;;;;;3.70;2.13;;;5.80;99.90;;;;;;4991425;28;20462;-71
2021/03/28 03:09:52;;;;;;;4.93;2.40;;;5.80;99.90;;;;;;4991306;28;20446;-71
2021/03/28 03:12:42;;;;;;;3.83;2.10;;;5.80;99.90;;;;;;4991547;28;20511;-71
2021/03/28 03:15:24;;;;;;;3.27;2.40;;;5.80;99.90;;;;;;4990889;28;20878;-72
2021/03/28 03:18:02;;;;;;;3.70;2.50;;;5.80;99.90;;;;;;4991264;28;20513;-71
2021/03/28 03:20:58;;;;;;;8.37;4.77;;;5.80;99.90;;;;;;4990918;28;20976;-72
2021/03/28 03:23:49;;;;;;;5.27;2.20;;;5.80;99.90;;;;;;4978446;28;20433;-71
2021/03/28 03:26:34;;;;;;;3.53;2.83;;;5.80;99.90;;;;;;4991289;28;20566;-72
2021/03/28 03:29:41;;;;;;;10.43;2.07;;;5.80;99.90;;;;;;4973352;28;20516;-72
2021/03/28 03:32:34;;;;;;;3.60;2.40;;;5.80;99.90;;;;;;4991314;28;20933;-71
2021/03/28 03:35:30;;;;;;;5.30;2.90;;;5.80;99.90;;;;;;4981314;28;20454;-71
2021/03/28 03:38:12;;;;;;;4.63;2.20;;;5.80;99.90;;;;;;4973601;28;20434;-72
2021/03/28 03:40:49;;;;;;;2.43;1.80;;;5.80;99.90;;;;;;4990812;28;20810;-71
2021/03/28 03:43:48;;;;;;;5.47;2.23;;;5.80;99.90;;;;;;4991155;28;20422;-72
2021/03/28 03:46:40;;;;;;;6.23;3.00;;;5.70;99.90;;;;;;4991100;28;20470;-72
2021/03/28 03:49:23;;;;;;;9.00;2.60;;;5.70;99.90;;;;;;4990846;28;20455;-73
2021/03/28 03:52:19;;;;;;;7.27;2.00;;;5.70;99.90;;;;;;4991113;28;20438;-71
2021/03/28 03:55:27;;;;;;;6.10;2.77;;;5.70;99.90;;;;;;4990857;28;20431;-71
2021/03/28 03:58:07;;;;;;;4.57;2.10;;;5.60;99.90;;;;;;4958551;28;20945;-71
2021/03/28 04:00:49;;;;;;;4.50;2.37;;;5.60;99.90;;;;;;4990579;28;20811;-71
2021/03/28 04:03:21;;;;;;;3.37;1.87;;;5.50;99.90;;;;;;4991109;28;20469;-72
2021/03/28 04:05:57;;;;;;;4.00;2.23;;;5.40;99.90;;;;;;4990878;28;20465;-71
2021/03/28 04:08:41;;;;;;;5.40;2.60;;;5.40;99.90;;;;;;4991092;28;20443;-72
2021/03/28 04:11:27;;;;;;;4.33;2.27;;;5.30;99.90;;;;;;4978093;28;20434;-72
2021/03/28 04:14:17;;;;;;;4.67;2.90;;;5.30;99.90;;;;;;4991040;28;20568;-71
2021/03/28 04:17:25;;;;;;;5.70;2.17;;;5.20;99.90;;;;;;4990760;28;20782;-72
2021/03/28 04:20:25;;;;;;;3.03;2.37;;;5.20;99.90;;;;;;4975393;28;20476;-72
2021/03/28 04:23:16;;;;;;;4.10;3.00;;;5.10;99.90;;;;;;4990916;28;20445;-72
2021/03/28 04:25:57;;;;;;;4.60;2.30;;;5.20;99.90;;;;;;4992958;28;20620;-72
2021/03/28 04:28:30;;;;;;;2.50;1.83;;;5.30;99.90;;;;;;4994622;28;20438;-71
2021/03/28 04:30:55;;;;;;;5.23;2.10;;;5.30;99.90;;;;;;4994037;28;20434;-72
2021/03/28 04:33:36;;;;;;;4.00;2.50;;;5.30;99.90;;;;;;4994476;28;20817;-72
2021/03/28 04:36:04;;;;;;;2.77;1.90;;;5.30;99.90;;;;;;4973795;28;20698;-71
2021/03/28 04:38:42;;;;;;;3.43;1.70;;;5.30;99.90;;;;;;4990897;28;21010;-71
2021/03/28 04:41:26;;;;;;;5.77;2.13;;;5.30;99.90;;;;;;4993868;28;20434;-72
2021/03/28 04:44:23;;;;;;;4.30;2.20;;;5.30;99.90;;;;;;4994315;28;20434;-71
2021/03/28 04:47:13;;;;;;;6.20;2.00;;;5.30;99.90;;;;;;4994179;28;20466;-71
2021/03/28 04:50:33;;;;;;;5.90;3.40;;;5.40;99.90;;;;;;4993869;28;20478;-72
2021/03/28 04:53:02;;;;;;;3.90;2.60;;;5.30;99.90;;;;;;4991347;28;20509;-71
2021/03/28 04:55:36;;;;;;;6.10;2.20;;;5.30;99.90;;;;;;4976491;28;20523;-72
2021/03/28 04:58:25;;;;;;;6.70;2.70;;;5.20;99.90;;;;;;4993971;28;20438;-72
2021/03/28 05:01:08;;;;;;;3.60;2.37;;;5.20;99.90;;;;;;4993403;28;20462;-71
2021/03/28 05:03:51;;;;;;;5.27;1.90;;;5.10;99.90;;;;;;4980447;28;20836;-72
2021/03/28 05:06:49;;;;;;;7.43;2.53;;;5.10;99.90;;;;;;4993857;28;20464;-71
2021/03/28 05:09:40;;;;;;;4.90;2.40;;;5.00;99.90;;;;;;4993328;28;20521;-72
2021/03/28 05:12:24;;;;;;;5.63;2.50;;;4.90;99.90;;;;;;4993293;28;20470;-71
2021/03/28 05:15:15;;;;;;;6.93;3.33;;;4.90;99.90;;;;;;4993522;28;20427;-72
2021/03/28 05:17:59;;;;;;;5.33;2.33;;;4.80;99.90;;;;;;4993430;28;20849;-72
2021/03/28 05:21:02;;;;;;;4.20;2.63;;;4.80;99.90;;;;;;4992965;28;20528;-72
2021/03/28 05:23:46;;;;;;;7.63;2.87;;;4.80;99.90;;;;;;4993186;28;20434;-72
2021/03/28 05:26:48;;;;;;;4.33;2.30;;;4.80;99.90;;;;;;4976003;28;20470;-72
2021/03/28 05:29:22;;;;;;;4.40;2.20;;;4.80;99.90;;;;;;4992934;28;20505;-72
2021/03/28 05:32:12;;;;;;;4.50;2.67;;;4.80;99.90;;;;;;4993478;28;20941;-72
2021/03/28 05:35:12;;;;;;;7.43;3.60;;;4.80;99.90;;;;;;4979093;28;20422;-72
2021/03/28 05:38:04;;;;;;;6.03;2.77;;;4.80;99.90;;;;;;4992387;28;20449;-73
2021/03/28 05:41:10;;;;;;;4.67;2.73;;;4.80;99.90;;;;;;4992940;28;20481;-73
2021/03/28 05:44:04;;;;;;;6.30;2.47;;;4.90;99.90;;;;;;4993333;28;20492;-72
2021/03/28 05:47:13;;;;;;;4.33;2.37;;;5.00;99.90;;;;;;4992867;28;20977;-71
2021/03/28 05:50:16;;;;;;;3.73;2.70;;;5.10;99.90;;;;;;4992737;28;20446;-72
2021/03/28 05:53:11;;;;;;;5.53;3.13;;;5.30;99.90;;;;;;4977892;28;20509;-71
2021/03/28 05:56:10;;;;;;;6.23;2.70;;;5.30;99.90;;;;;;4983628;28;20453;-71
2021/03/28 05:58:57;;;;;;;2.50;2.30;;;5.50;99.90;;;;;;4992584;28;20488;-72
2021/03/28 06:01:46;;;;;;;4.57;2.77;;;5.60;99.90;;;;;;4992669;28;20466;-71
2021/03/28 06:05:09;;;;;;;2.90;2.10;;;5.70;99.90;;;;;;4974978;28;20442;-71
2021/03/28 06:07:58;;;;;;;4.97;2.70;;;5.70;99.90;;;;;;4992647;28;20449;-72
2021/03/28 06:11:02;;;;;;;7.97;2.60;;;5.80;99.90;;;;;;4991943;28;20469;-71
2021/03/28 06:14:32;;;;;;;5.40;2.83;;;5.80;99.90;;;;;;4992526;28;20433;-71
2021/03/28 06:17:21;;;;;;;4.00;2.50;;;5.80;99.90;;;;;;4951239;29;20526;-72
2021/03/28 06:19:50;;;;;;;4.93;2.47;;;5.90;99.90;;;;;;4950848;28;20468;-71
2021/03/28 06:22:37;;;;;;;6.87;2.77;;;5.90;99.90;;;;;;4984727;28;20446;-71
2021/03/28 06:25:38;;;;;;;4.60;2.20;;;6.20;99.90;;;;;;4977715;28;20433;-72
2021/03/28 06:28:22;;;;;;;4.20;2.63;;;6.50;99.90;;;;;;4992276;28;20433;-72
2021/03/28 06:31:21;;;;;;;4.47;2.87;;;6.90;99.90;;;;;;4991956;28;20451;-71
2021/03/28 06:34:20;;;;;;;5.10;2.80;;;7.10;99.90;;;;;;4992160;28;20450;-73
2021/03/28 06:37:07;;;;;;;4.80;2.80;;;7.40;99.90;;;;;;4991872;28;20500;-71
2021/03/28 06:40:04;;;;;;;5.90;2.70;;;7.60;99.90;;;;;;4991677;28;20450;-72
2021/03/28 06:42:59;;;;;;;5.67;3.13;;;7.60;99.90;;;;;;4992096;28;20434;-71
2021/03/28 06:45:43;;;;;;;6.00;2.93;;;7.90;99.90;;;;;;4991958;28;20545;-71
2021/03/28 06:48:43;;;;;;;3.87;2.70;;;8.10;99.90;;;;;;4991125;28;20466;-72
2021/03/28 06:51:33;;;;;;;4.53;2.40;;;8.50;99.90;;;;;;4984276;28;20430;-71
2021/03/28 06:54:32;;;;;;;6.93;2.47;;;8.70;99.90;;;;;;4991815;28;20430;-71
2021/03/28 06:57:13;;;;;;;4.93;2.17;;;8.70;99.90;;;;;;4991874;28;20480;-71
2021/03/28 07:00:13;;;;;;;6.40;2.60;;;8.50;99.90;;;;;;4991641;28;20534;-71
2021/03/28 07:03:14;;;;;;;7.13;2.57;;;8.60;99.90;;;;;;4992066;28;20512;-71
2021/03/28 07:06:17;;;;;;;7.07;3.13;;;8.60;99.90;;;;;;4979764;28;20486;-72
2021/03/28 07:08:56;;;;;;;4.77;2.77;;;8.70;99.90;;;;;;4991149;28;20845;-70
2021/03/28 07:11:52;;;;;;;4.50;2.17;;;9.10;99.90;;;;;;4991574;28;20876;-71
2021/03/28 07:14:52;;;;;;;6.13;2.73;;;9.40;99.90;;;;;;4991488;28;20514;-71
2021/03/28 07:17:32;;;;;;;5.23;3.13;;;9.60;99.90;;;;;;4991528;28;20461;-71
2021/03/28 07:20:30;;;;;;;4.30;2.70;;;9.70;99.90;;;;;;4991064;28;20462;-71
2021/03/28 07:23:23;;;;;;;4.87;2.50;;;9.80;99.90;;;;;;4990820;28;20933;-70
2021/03/28 07:26:06;;;;;;;4.40;2.40;;;10.00;99.90;;;;;;4987398;28;20458;-71
2021/03/28 07:29:01;;;;;;;3.50;2.50;;;10.00;99.90;;;;;;4991593;28;20514;-72
2021/03/28 07:31:43;;;;;;;6.43;2.70;;;10.10;99.90;;;;;;4978368;28;20430;-70
2021/03/28 07:34:39;;;;;;;11.00;3.43;;;10.50;99.90;;;;;;4991324;28;20492;-71
2021/03/28 07:37:09;;;;;;;9.00;2.70;;;10.60;99.90;;;;;;4990875;28;20441;-71
2021/03/28 07:40:13;;;;;;;2.60;2.07;;;10.90;99.90;;;;;;4990668;28;20452;-70
2021/03/28 07:43:05;;;;;;;6.50;2.47;;;11.00;99.90;;;;;;4990859;28;20435;-71
2021/03/28 07:46:04;;;;;;;4.30;2.40;;;11.20;99.40;;;;;;4977676;28;20585;-70
2021/03/28 07:48:47;;;;;;;4.30;1.80;;;11.50;99.10;;;;;;4991014;28;20957;-71
2021/03/28 07:51:31;;;;;;;7.43;3.03;;;11.40;98.20;;;;;;4990485;28;20484;-72
2021/03/28 07:54:12;;;;;;;5.00;2.53;;;11.50;98.50;;;;;;4991170;28;20423;-71
2021/03/28 07:56:59;;;;;;;4.37;2.67;;;11.50;98.00;;;;;;4990884;28;20430;-72
2021/03/28 07:59:49;;;;;;;4.47;2.20;;;11.70;97.80;;;;;;4973552;28;20450;-72
2021/03/28 08:02:40;;;;;;;6.80;3.00;;;11.90;97.40;;;;;;4995143;28;20430;-71
2021/03/28 08:05:34;;;;;;;8.23;2.27;;;11.90;96.90;;;;;;4994821;28;20804;-71
2021/03/28 08:08:17;;;;;;;5.07;2.87;;;12.10;97.10;;;;;;4994975;28;20422;-71
2021/03/28 08:11:05;;;;;;;5.80;2.43;;;12.30;96.20;;;;;;4994557;28;20454;-72
2021/03/28 08:14:06;;;;;;;4.20;2.30;;;12.30;95.90;;;;;;4979068;28;20430;-72
2021/03/28 08:17:09;;;;;;;4.30;2.73;;;12.30;95.70;;;;;;4934278;29;20441;-72
2021/03/28 08:20:00;;;;;;;4.77;2.33;;;12.50;95.80;;;;;;4978743;28;20851;-72
2021/03/28 08:22:37;;;;;;;8.03;4.00;;;12.70;95.40;;;;;;4994650;28;21075;-72
2021/03/28 08:25:34;;;;;;;4.40;3.40;;;13.00;94.80;;;;;;4994221;28;20426;-72
2021/03/28 08:28:20;;;;;;;5.90;3.00;;;13.10;94.10;;;;;;4994373;28;20940;-72
2021/03/28 08:30:47;;;;;;;4.43;2.77;;;12.90;93.70;;;;;;4976441;28;20544;-72
2021/03/28 08:33:42;;;;;;;11.27;3.13;;;13.30;93.30;;;;;;4994153;28;20431;-72
2021/03/28 08:36:41;;;;;;;6.53;3.27;;;13.90;92.10;;;;;;4982508;28;20431;-72
2021/03/28 08:39:22;;;;;;;6.60;3.00;;;14.70;90.70;;;;;;4976466;28;20537;-72
2021/03/28 08:42:29;;;;;;;4.80;2.60;;;15.20;87.50;;;;;;4978437;28;20422;-72
2021/03/28 08:45:30;;;;;;;6.87;2.67;;;15.70;84.50;;;;;;4979999;28;20452;-72
2021/03/28 08:48:23;;;;;;;2.70;2.47;;;16.10;80.80;;;;;;4994428;28;20421;-72
2021/03/28 08:50:57;;;;;;;8.43;3.50;;;16.50;77.60;;;;;;4993808;28;20980;-73
2021/03/28 08:53:52;;;;;;;4.47;2.73;;;16.90;74.50;;;;;;4993793;28;20454;-72
2021/03/28 08:56:41;;;;;;;7.03;3.30;;;16.60;74.40;;;;;;4983759;28;20427;-73
2021/03/28 08:59:41;;;;;;;7.30;3.17;;;16.60;72.80;;;;;;4982337;28;20508;-73
2021/03/28 09:02:25;;;;;;;4.60;2.53;;;16.50;70.70;;;;;;4977270;28;20438;-73
2021/03/28 09:05:04;;;;;;;8.03;2.40;;;16.10;71.10;;;;;;4993675;28;20843;-73
2021/03/28 09:07:52;;;;;;;4.00;2.70;;;16.60;70.50;;;;;;4993744;28;20465;-73
2021/03/28 09:10:25;;;;;;;5.20;2.70;;;17.10;66.80;;;;;;4993430;28;20962;-74
2021/03/28 09:13:14;;;;;;;4.57;2.47;;;16.90;64.30;;;;;;4992682;28;20863;-73
2021/03/28 09:15:55;;;;;;;4.60;2.70;;;16.70;64.10;;;;;;4993790;28;20434;-69
2021/03/28 09:18:45;;;;;;;6.07;3.23;;;17.10;62.80;;;;;;4977960;28;20430;-71
2021/03/28 09:21:28;;;;;;;2.23;2.03;;;17.30;61.10;;;;;;4991878;28;20454;-71
2021/03/28 09:24:14;;;;;;;5.33;2.70;;;18.40;58.70;;;;;;4993767;28;20965;-70
2021/03/28 09:26:48;;;;;;;5.60;2.87;;;19.00;55.90;;;;;;4993284;28;20548;-70
2021/03/28 09:29:51;;;;;;;5.70;2.63;;;18.90;56.20;;;;;;4993135;28;20820;-72
2021/03/28 09:32:47;;;;;;;6.20;2.87;;;18.50;55.00;;;;;;4993271;28;20453;-74
2021/03/28 09:35:35;;;;;;;2.73;2.40;;;18.50;54.40;;;;;;4993362;28;20505;-72
2021/03/28 09:38:08;;;;;;;4.13;2.60;;;18.80;53.40;;;;;;4993239;28;20573;-73
2021/03/28 09:40:50;;;;;;;4.30;3.27;;;19.40;52.60;;;;;;4992814;28;20981;-72
2021/03/28 09:43:37;;;;;;;4.27;2.73;;;20.70;48.40;;;;;;4993211;28;20426;-73
2021/03/28 09:46:21;;;;;;;3.50;2.30;;;21.20;48.70;;;;;;4992602;28;20462;-73
2021/03/28 09:49:20;;;;;;;4.87;2.40;;;22.20;47.30;;;;;;4993240;28;20815;-68
2021/03/28 09:52:08;;;;;;;2.93;2.10;;;22.60;43.90;;;;;;4993107;28;20430;-69
2021/03/28 09:54:52;;;;;;;5.40;2.80;;;22.30;44.70;;;;;;4993002;28;20434;-70
2021/03/28 09:57:42;;;;;;;3.63;2.80;;;21.80;43.30;;;;;;4993104;28;20418;-69
2021/03/28 10:00:28;;;;;;;4.30;3.00;;;21.90;43.00;;;;;;4992437;28;20454;-69
2021/03/28 10:03:12;;;;;;;2.80;2.60;;;21.50;42.20;;;;;;4992507;28;20780;-69
2021/03/28 10:05:39;;;;;;;2.73;2.53;;;20.80;43.10;;;;;;4992799;28;20466;-69
2021/03/28 10:08:10;;;;;;;2.87;2.23;;;20.70;41.90;;;;;;4992572;28;20423;-69
2021/03/28 10:10:39;;;;;;;3.80;2.50;;;19.30;43.90;;;;;;4992143;28;20446;-69
2021/03/28 10:13:19;;;;;;;4.97;2.27;;;19.40;43.70;;;;;;4992457;28;20509;-69
2021/03/28 10:16:22;;;;;;;3.60;2.60;;;19.00;44.50;;;;;;4992357;28;20441;-69
2021/03/28 10:19:05;;;;;;;3.23;2.43;;;18.30;45.30;;;;;;4971212;28;20474;-68
2021/03/28 10:21:43;;;;;;;2.37;1.90;;;18.10;45.50;;;;;;4974849;28;20439;-69
2021/03/28 10:24:11;;;;;;;4.37;2.70;;;18.30;45.60;;;;;;4991853;28;20849;-69
2021/03/28 10:27:03;;;;;;;3.63;2.47;;;18.90;45.60;;;;;;4992228;28;20554;-68
2021/03/28 10:29:42;;;;;;;3.43;2.50;;;18.90;45.20;;;;;;4988025;28;20455;-69
2021/03/28 10:32:34;;;;;;;2.53;2.33;;;19.70;44.70;;;;;;4992151;28;20438;-69
2021/03/28 10:35:30;;;;;;;4.43;2.53;;;20.40;43.60;;;;;;4990927;28;21124;-69
2021/03/28 10:38:34;;;;;;;4.80;3.40;;;20.80;42.90;;;;;;4991783;28;20469;-69
2021/03/28 10:41:29;;;;;;;4.40;2.80;;;22.40;41.60;;;;;;4973765;28;20467;-70
2021/03/28 10:44:00;;;;;;;4.63;2.20;;;22.10;41.00;;;;;;4988436;28;21055;-69
2021/03/28 10:46:43;;;;;;;4.10;2.33;;;22.60;40.30;;;;;;4988579;28;20470;-69
2021/03/28 10:49:35;;;;;;;4.97;2.30;;;23.20;39.70;;;;;;4988394;28;20459;-69
2021/03/28 10:52:39;;;;;;;5.20;2.73;;;23.40;38.60;;;;;;4985046;28;20494;-69
2021/03/28 10:55:22;;;;;;;4.97;3.10;;;21.80;39.60;;;;;;4978998;28;20521;-70
2021/03/28 10:58:30;;;;;;;4.17;2.00;;;21.00;40.40;;;;;;4988938;28;20438;-69
2021/03/28 11:01:30;;;;;;;3.67;2.30;;;21.70;40.30;;;;;;4977143;28;20426;-69
2021/03/28 11:04:27;;;;;;;6.57;3.63;;;22.40;39.20;;;;;;4988259;28;20466;-69
2021/03/28 11:07:20;;;;;;;4.90;2.60;;;22.00;40.50;;;;;;4988284;28;20477;-69
2021/03/28 11:10:18;;;;;;;5.20;2.60;;;23.30;38.30;;;;;;4977218;28;21281;-69
2021/03/28 11:13:22;;;;;;;6.30;2.67;;;24.00;37.60;;;;;;4970692;28;20453;-69
2021/03/28 11:16:08;;;;;;;4.67;3.27;;;23.60;37.40;;;;;;4988516;28;20426;-69
2021/03/28 11:19:14;;;;;;;12.40;10.03;;;23.20;38.10;;;;;;4963066;28;20489;-69
2021/03/28 11:22:15;;;;;;;5.80;4.40;;;23.90;37.30;;;;;;4988240;28;20446;-69
2021/03/28 11:25:04;;;;;;;3.33;3.03;;;25.00;36.90;;;;;;4955020;28;20950;-69
2021/03/28 11:27:54;;;;;;;3.87;3.30;;;24.10;37.40;;;;;;4980646;28;20446;-69
2021/03/28 11:30:36;;;;;;;5.73;3.07;;;23.70;37.50;;;;;;4987942;28;20895;-69
2021/03/28 11:33:11;;;;;;;7.57;2.90;;;26.10;36.30;;;;;;4988116;28;20526;-67
2021/03/28 11:35:43;;;;;;;3.33;3.07;;;26.00;35.60;;;;;;4987520;28;20446;-68
2021/03/28 11:38:17;;;;;;;5.47;3.70;;;24.80;36.30;;;;;;4987711;28;20445;-68
2021/03/28 11:40:48;;;;;;;3.30;2.77;;;25.00;36.20;;;;;;4981024;28;20511;-68
2021/03/28 11:43:25;;;;;;;4.23;2.40;;;25.20;35.90;;;;;;4988071;28;20431;-68
2021/03/28 11:46:05;;;;;;;7.70;4.27;;;25.80;35.50;;;;;;4987967;28;20544;-68
2021/03/28 11:49:01;;;;;;;5.63;5.13;;;25.30;35.00;;;;;;4987548;28;20466;-68
2021/03/28 11:51:30;;;;;;;2.90;2.30;;;24.30;35.40;;;;;;4987751;28;20449;-68
2021/03/28 11:54:14;;;;;;;4.90;2.90;;;24.50;36.20;;;;;;4988065;28;21017;-68
2021/03/28 11:56:51;;;;;;;3.83;2.90;;;26.00;34.50;;;;;;4987357;28;20438;-68
2021/03/28 11:59:22;;;;;;;3.80;3.20;;;26.60;34.30;;;;;;4987389;28;21035;-69
2021/03/28 12:01:58;;;;;;;3.20;2.80;;;26.30;34.10;;;;;;4988157;28;20528;-68
2021/03/28 12:04:24;;;;;;;3.50;2.80;;;26.40;33.30;;;;;;4988124;28;20975;-68
2021/03/28 12:06:56;;;;;;;5.33;4.07;;;26.90;32.50;;;;;;4987941;28;20461;-68
2021/03/28 12:09:32;;;;;;;8.57;6.13;;;27.10;33.30;;;;;;4987699;28;20257;-68
2021/03/28 12:12:14;;;;;;;5.23;4.50;;;26.00;32.80;;;;;;4988048;28;20960;-68
2021/03/28 12:14:39;;;;;;;5.10;4.70;;;26.10;33.80;;;;;;4987284;28;20438;-68
2021/03/28 12:17:11;;;;;;;6.10;3.50;;;25.30;33.20;;;;;;4987591;28;20981;-68
2021/03/28 12:20:00;;;;;;;5.83;3.63;;;24.00;34.40;;;;;;4987074;28;20227;-68
2021/03/28 12:22:49;;;;;;;6.53;5.20;;;23.60;35.50;;;;;;4987245;28;20438;-71
2021/03/28 12:25:19;;;;;;;7.60;4.37;;;24.70;34.70;;;;;;4987907;28;20645;-70
2021/03/28 12:27:56;;;;;;;5.13;2.97;;;25.10;34.20;;;;;;4987534;28;20437;-69
2021/03/28 12:30:28;;;;;;;6.87;3.60;;;25.30;34.00;;;;;;4987189;28;20485;-69
2021/03/28 12:32:53;;;;;;;4.27;2.77;;;25.00;34.30;;;;;;4987601;28;20531;-69
2021/03/28 12:35:25;;;;;;;3.63;2.43;;;25.60;33.20;;;;;;4988122;28;21033;-69
2021/03/28 12:37:52;;;;;;;5.73;2.43;;;27.20;32.90;;;;;;4987665;28;20176;-69
2021/03/28 12:40:36;;;;;;;4.23;2.73;;;28.40;31.70;;;;;;4986572;28;20447;-69
2021/03/28 12:43:04;;;;;;;4.90;3.10;;;27.10;30.70;;;;;;4987569;28;20840;-69
2021/03/28 12:45:33;;;;;;;3.63;2.50;;;25.30;32.70;;;;;;4987735;28;20466;-68
2021/03/28 12:48:01;;;;;;;3.30;3.00;;;25.60;33.40;;;;;;4991024;28;20798;-69
2021/03/28 12:50:41;;;;;;;3.37;2.77;;;26.00;32.80;;;;;;4972924;28;20454;-69
2021/03/28 12:53:21;;;;;;;3.90;3.17;;;25.70;32.60;;;;;;4991134;28;21001;-69
2021/03/28 12:55:50;;;;;;;3.77;2.93;;;26.80;33.30;;;;;;4990715;28;20468;-69
2021/03/28 12:58:35;;;;;;;3.33;2.90;;;26.60;32.30;;;;;;4990943;28;20434;-68
2021/03/28 13:01:20;;;;;;;3.53;3.23;;;25.70;32.70;;;;;;4989262;28;20493;-69
2021/03/28 13:03:48;;;;;;;3.20;2.90;;;27.80;32.30;;;;;;4990715;28;20434;-69
2021/03/28 13:06:31;;;;;;;3.90;2.50;;;29.60;30.50;;;;;;4990585;28;20556;-68
2021/03/28 13:09:18;;;;;;;4.97;2.73;;;28.20;30.60;;;;;;4990415;28;20951;-69
2021/03/28 13:11:45;;;;;;;5.40;3.60;;;26.50;32.20;;;;;;4990599;28;20435;-69
2021/03/28 13:14:43;;;;;;;6.03;2.73;;;27.30;32.00;;;;;;4990177;28;20485;-69
2021/03/28 13:17:14;;;;;;;5.63;2.60;;;28.10;30.90;;;;;;4952374;28;20446;-69
2021/03/28 13:19:41;;;;;;;5.27;3.10;;;26.40;31.50;;;;;;4990022;28;20842;-69
2021/03/28 13:22:43;;;;;;;4.60;2.67;;;25.30;32.90;;;;;;4990141;28;20503;-68
2021/03/28 13:25:17;;;;;;;2.33;2.10;;;26.60;32.70;;;;;;4989745;28;20430;-69
2021/03/28 13:28:10;;;;;;;4.33;2.80;;;26.80;31.40;;;;;;4990841;28;20777;-69
2021/03/28 13:30:40;;;;;;;6.37;2.60;;;27.70;31.70;;;;;;4989232;28;20553;-69
2021/03/28 13:33:36;;;;;;;3.43;2.60;;;29.30;30.80;;;;;;4989869;28;20445;-69
2021/03/28 13:36:30;;;;;;;4.43;3.27;;;28.00;30.40;;;;;;4982277;28;20465;-69
2021/03/28 13:39:07;;;;;;;7.40;3.23;;;28.60;30.70;;;;;;4989931;28;20601;-68
2021/03/28 13:41:36;;;;;;;3.10;2.63;;;28.80;30.10;;;;;;4990135;28;20410;-69
2021/03/28 13:44:11;;;;;;;4.03;2.50;;;28.90;30.30;;;;;;4990050;28;20988;-69
2021/03/28 13:46:56;;;;;;;2.93;2.37;;;27.50;30.50;;;;;;4989815;28;20473;-69
2021/03/28 13:49:52;;;;;;;3.70;2.27;;;26.20;31.80;;;;;;4974834;28;20875;-69
2021/03/28 13:52:22;;;;;;;3.77;2.77;;;25.50;31.70;;;;;;4990244;28;20879;-67
2021/03/28 13:55:08;;;;;;;2.60;2.27;;;23.20;33.70;;;;;;4988242;28;20437;-68
2021/03/28 13:57:37;;;;;;;3.57;2.43;;;21.60;35.40;;;;;;4989337;28;20486;-67
2021/03/28 14:00:34;;;;;;;5.73;5.13;;;20.90;36.70;;;;;;4989233;28;20509;-68
2021/03/28 14:03:15;;;;;;;5.67;3.63;;;20.40;38.50;;;;;;4989540;28;20431;-68
2021/03/28 14:05:43;;;;;;;5.67;3.13;;;19.90;38.40;;;;;;4989324;28;20811;-69
2021/03/28 14:08:16;;;;;;;5.40;3.60;;;19.80;38.60;;;;;;4989482;28;20785;-66
2021/03/28 14:10:41;;;;;;;4.20;2.73;;;19.20;39.50;;;;;;4988836;28;20458;-68
2021/03/28 14:13:19;;;;;;;5.30;2.70;;;18.80;39.90;;;;;;4984227;28;20504;-68
2021/03/28 14:15:47;;;;;;;4.97;4.00;;;18.50;40.40;;;;;;4988953;28;20186;-68
2021/03/28 14:18:47;;;;;;;4.20;3.17;;;18.40;40.50;;;;;;4978567;28;20442;-69
2021/03/28 14:21:24;;;;;;;3.17;2.40;;;18.50;39.90;;;;;;4969613;28;20898;-70
2021/03/28 14:24:01;;;;;;;4.47;2.70;;;18.40;40.50;;;;;;4989018;28;20438;-71
2021/03/28 14:26:57;;;;;;;4.90;3.23;;;18.30;41.50;;;;;;4984930;28;20474;-67
2021/03/28 14:29:40;;;;;;;3.37;2.60;;;18.10;41.90;;;;;;4979221;28;21008;-70